sensor_id;sensor_type;location;lat;lon;timestamp;P1;durP1;ratioP1;P2;durP2;ratioP2
70927;SDS011;58587;53.034;18.576;2023-05-15T00:00:32;11.07;;;7.37;;
70927;SDS011;58587;53.034;18.576;2023-05-15T00:02:57;14.90;;;7.00;;
70927;SDS011;58587;53.034;18.576;2023-05-15T00:05:23;12.27;;;7.13;;
70927;SDS011;58587;53.034;18.576;2023-05-15T00:07:48;13.73;;;7.37;;
70927;SDS011;58587;53.034;18.576;2023-05-15T00:10:14;11.57;;;6.97;;
70927;SDS011;58587;53.034;18.576;2023-05-15T00:12:39;10.17;;;6.57;;
70927;SDS011;58587;53.034;18.576;2023-05-15T00:15:04;12.07;;;6.70;;
70927;SDS011;58587;53.034;18.576;2023-05-15T00:17:30;9.18;;;6.28;;
70927;SDS011;58587;53.034;18.576;2023-05-15T00:19:56;9.90;;;6.30;;
70927;SDS011;58587;53.034;18.576;2023-05-15T00:22:23;10.82;;;6.45;;
70927;SDS011;58587;53.034;18.576;2023-05-15T00:24:48;12.20;;;6.67;;
70927;SDS011;58587;53.034;18.576;2023-05-15T00:27:14;12.00;;;6.55;;
70927;SDS011;58587;53.034;18.576;2023-05-15T00:29:39;12.33;;;6.23;;
70927;SDS011;58587;53.034;18.576;2023-05-15T00:32:05;10.67;;;6.20;;
70927;SDS011;58587;53.034;18.576;2023-05-15T00:34:30;13.23;;;6.00;;
70927;SDS011;58587;53.034;18.576;2023-05-15T00:36:56;9.33;;;6.43;;
70927;SDS011;58587;53.034;18.576;2023-05-15T00:39:21;8.73;;;6.10;;
70927;SDS011;58587;53.034;18.576;2023-05-15T00:41:46;13.17;;;6.60;;
70927;SDS011;58587;53.034;18.576;2023-05-15T00:44:14;9.77;;;6.30;;
70927;SDS011;58587;53.034;18.576;2023-05-15T00:46:40;8.80;;;6.40;;
70927;SDS011;58587;53.034;18.576;2023-05-15T00:49:07;9.10;;;6.17;;
70927;SDS011;58587;53.034;18.576;2023-05-15T00:51:37;9.77;;;6.07;;
70927;SDS011;58587;53.034;18.576;2023-05-15T00:54:07;10.80;;;6.53;;
70927;SDS011;58587;53.034;18.576;2023-05-15T00:56:34;9.23;;;6.20;;
70927;SDS011;58587;53.034;18.576;2023-05-15T00:59:00;9.77;;;5.78;;
70927;SDS011;58587;53.034;18.576;2023-05-15T01:01:27;7.83;;;5.77;;
70927;SDS011;58587;53.034;18.576;2023-05-15T01:03:57;24.25;;;6.93;;
70927;SDS011;58587;53.034;18.576;2023-05-15T01:06:22;8.70;;;5.68;;
70927;SDS011;58587;53.034;18.576;2023-05-15T01:08:48;13.50;;;6.50;;
70927;SDS011;58587;53.034;18.576;2023-05-15T01:11:15;10.80;;;6.22;;
70927;SDS011;58587;53.034;18.576;2023-05-15T01:13:41;12.07;;;6.37;;
70927;SDS011;58587;53.034;18.576;2023-05-15T01:16:07;9.38;;;5.90;;
70927;SDS011;58587;53.034;18.576;2023-05-15T01:18:34;10.02;;;5.90;;
70927;SDS011;58587;53.034;18.576;2023-05-15T01:29:22;11.60;;;6.07;;
70927;SDS011;58587;53.034;18.576;2023-05-15T01:31:56;7.90;;;5.37;;
70927;SDS011;58587;53.034;18.576;2023-05-15T01:34:26;10.63;;;5.60;;
70927;SDS011;58587;53.034;18.576;2023-05-15T01:36:59;11.15;;;5.57;;
70927;SDS011;58587;53.034;18.576;2023-05-15T01:39:27;8.32;;;4.85;;
70927;SDS011;58587;53.034;18.576;2023-05-15T01:41:59;9.70;;;5.30;;
70927;SDS011;58587;53.034;18.576;2023-05-15T01:44:31;9.80;;;4.53;;
70927;SDS011;58587;53.034;18.576;2023-05-15T01:47:00;8.77;;;5.10;;
70927;SDS011;58587;53.034;18.576;2023-05-15T01:49:30;7.55;;;5.30;;
70927;SDS011;58587;53.034;18.576;2023-05-15T01:52:17;8.68;;;4.53;;
70927;SDS011;58587;53.034;18.576;2023-05-15T01:54:46;11.77;;;5.43;;
70927;SDS011;58587;53.034;18.576;2023-05-15T01:57:14;7.07;;;4.73;;
70927;SDS011;58587;53.034;18.576;2023-05-15T01:59:39;8.70;;;4.90;;
70927;SDS011;58587;53.034;18.576;2023-05-15T02:02:06;7.22;;;4.68;;
70927;SDS011;58587;53.034;18.576;2023-05-15T02:04:32;7.35;;;4.25;;
70927;SDS011;58587;53.034;18.576;2023-05-15T02:06:58;5.90;;;4.13;;
70927;SDS011;58587;53.034;18.576;2023-05-15T02:09:26;5.55;;;4.63;;
70927;SDS011;58587;53.034;18.576;2023-05-15T02:11:52;7.97;;;4.70;;
70927;SDS011;58587;53.034;18.576;2023-05-15T02:14:18;6.37;;;4.43;;
70927;SDS011;58587;53.034;18.576;2023-05-15T02:16:44;6.32;;;4.00;;
70927;SDS011;58587;53.034;18.576;2023-05-15T02:19:10;7.53;;;4.10;;
70927;SDS011;58587;53.034;18.576;2023-05-15T02:21:35;8.13;;;4.53;;
70927;SDS011;58587;53.034;18.576;2023-05-15T02:24:01;7.63;;;4.17;;
70927;SDS011;58587;53.034;18.576;2023-05-15T02:26:30;5.37;;;3.83;;
70927;SDS011;58587;53.034;18.576;2023-05-15T02:29:10;5.40;;;3.80;;
70927;SDS011;58587;53.034;18.576;2023-05-15T02:36:53;6.38;;;4.13;;
70927;SDS011;58587;53.034;18.576;2023-05-15T02:39:21;6.57;;;4.30;;
70927;SDS011;58587;53.034;18.576;2023-05-15T02:41:49;7.38;;;3.80;;
70927;SDS011;58587;53.034;18.576;2023-05-15T02:44:16;6.60;;;4.00;;
70927;SDS011;58587;53.034;18.576;2023-05-15T02:46:42;8.00;;;3.90;;
70927;SDS011;58587;53.034;18.576;2023-05-15T02:49:08;5.20;;;3.92;;
70927;SDS011;58587;53.034;18.576;2023-05-15T02:51:35;7.00;;;4.00;;
70927;SDS011;58587;53.034;18.576;2023-05-15T02:54:01;5.80;;;3.60;;
70927;SDS011;58587;53.034;18.576;2023-05-15T02:56:26;6.18;;;3.88;;
70927;SDS011;58587;53.034;18.576;2023-05-15T02:58:52;6.23;;;4.33;;
70927;SDS011;58587;53.034;18.576;2023-05-15T03:01:17;5.87;;;3.73;;
70927;SDS011;58587;53.034;18.576;2023-05-15T03:03:43;5.90;;;4.40;;
70927;SDS011;58587;53.034;18.576;2023-05-15T03:06:08;7.47;;;3.90;;
70927;SDS011;58587;53.034;18.576;2023-05-15T03:08:33;6.70;;;3.73;;
70927;SDS011;58587;53.034;18.576;2023-05-15T03:10:59;5.33;;;3.67;;
70927;SDS011;58587;53.034;18.576;2023-05-15T03:13:24;6.07;;;3.93;;
70927;SDS011;58587;53.034;18.576;2023-05-15T03:15:50;4.80;;;3.50;;
70927;SDS011;58587;53.034;18.576;2023-05-15T03:18:16;5.15;;;3.55;;
70927;SDS011;58587;53.034;18.576;2023-05-15T03:20:42;5.80;;;3.78;;
70927;SDS011;58587;53.034;18.576;2023-05-15T03:23:08;7.10;;;3.83;;
70927;SDS011;58587;53.034;18.576;2023-05-15T03:25:33;5.30;;;3.63;;
70927;SDS011;58587;53.034;18.576;2023-05-15T03:27:58;7.67;;;3.90;;
70927;SDS011;58587;53.034;18.576;2023-05-15T03:30:24;6.43;;;4.23;;
70927;SDS011;58587;53.034;18.576;2023-05-15T03:32:49;10.13;;;3.60;;
70927;SDS011;58587;53.034;18.576;2023-05-15T03:35:15;4.72;;;3.65;;
70927;SDS011;58587;53.034;18.576;2023-05-15T03:37:40;6.33;;;3.50;;
70927;SDS011;58587;53.034;18.576;2023-05-15T03:40:05;16.93;;;8.13;;
70927;SDS011;58587;53.034;18.576;2023-05-15T03:42:31;5.68;;;3.67;;
70927;SDS011;58587;53.034;18.576;2023-05-15T03:44:57;6.63;;;3.40;;
70927;SDS011;58587;53.034;18.576;2023-05-15T03:47:22;8.73;;;5.00;;
70927;SDS011;58587;53.034;18.576;2023-05-15T03:49:47;10.73;;;3.70;;
70927;SDS011;58587;53.034;18.576;2023-05-15T03:52:12;5.20;;;3.23;;
70927;SDS011;58587;53.034;18.576;2023-05-15T03:54:38;7.22;;;3.90;;
70927;SDS011;58587;53.034;18.576;2023-05-15T03:57:03;6.90;;;3.67;;
70927;SDS011;58587;53.034;18.576;2023-05-15T03:59:30;4.50;;;3.60;;
70927;SDS011;58587;53.034;18.576;2023-05-15T04:01:55;7.13;;;3.93;;
70927;SDS011;58587;53.034;18.576;2023-05-15T04:04:21;6.90;;;4.10;;
70927;SDS011;58587;53.034;18.576;2023-05-15T04:06:46;6.00;;;3.50;;
70927;SDS011;58587;53.034;18.576;2023-05-15T04:09:11;6.77;;;3.77;;
70927;SDS011;58587;53.034;18.576;2023-05-15T05:43:08;8.65;;;4.95;;
70927;SDS011;58587;53.034;18.576;2023-05-15T05:45:34;7.97;;;5.30;;
70927;SDS011;58587;53.034;18.576;2023-05-15T05:47:59;10.27;;;5.10;;
70927;SDS011;58587;53.034;18.576;2023-05-15T05:50:25;7.18;;;4.85;;
70927;SDS011;58587;53.034;18.576;2023-05-15T05:52:50;6.83;;;5.00;;
70927;SDS011;58587;53.034;18.576;2023-05-15T05:55:15;9.07;;;4.67;;
70927;SDS011;58587;53.034;18.576;2023-05-15T05:57:41;6.87;;;4.87;;
70927;SDS011;58587;53.034;18.576;2023-05-15T06:00:06;6.67;;;5.10;;
70927;SDS011;58587;53.034;18.576;2023-05-15T06:02:35;8.68;;;4.95;;
70927;SDS011;58587;53.034;18.576;2023-05-15T06:05:02;9.48;;;5.10;;
70927;SDS011;58587;53.034;18.576;2023-05-15T06:07:27;8.93;;;4.70;;
70927;SDS011;58587;53.034;18.576;2023-05-15T06:09:53;9.17;;;5.00;;
70927;SDS011;58587;53.034;18.576;2023-05-15T06:12:18;11.20;;;5.13;;
70927;SDS011;58587;53.034;18.576;2023-05-15T06:14:43;7.40;;;4.77;;
70927;SDS011;58587;53.034;18.576;2023-05-15T06:17:09;7.47;;;5.27;;
70927;SDS011;58587;53.034;18.576;2023-05-15T06:19:35;8.55;;;5.38;;
70927;SDS011;58587;53.034;18.576;2023-05-15T06:22:00;8.23;;;5.27;;
70927;SDS011;58587;53.034;18.576;2023-05-15T06:24:25;10.57;;;5.60;;
70927;SDS011;58587;53.034;18.576;2023-05-15T06:26:51;11.50;;;5.73;;
70927;SDS011;58587;53.034;18.576;2023-05-15T06:29:16;9.30;;;5.43;;
70927;SDS011;58587;53.034;18.576;2023-05-15T06:31:41;10.27;;;5.80;;
70927;SDS011;58587;53.034;18.576;2023-05-15T06:34:07;7.27;;;5.47;;
70927;SDS011;58587;53.034;18.576;2023-05-15T06:36:32;8.97;;;5.93;;
70927;SDS011;58587;53.034;18.576;2023-05-15T06:38:58;7.30;;;5.30;;
70927;SDS011;58587;53.034;18.576;2023-05-15T06:41:23;9.67;;;5.73;;
70927;SDS011;58587;53.034;18.576;2023-05-15T13:37:23;15.55;;;11.88;;
70927;SDS011;58587;53.034;18.576;2023-05-15T13:39:48;19.60;;;14.93;;
70927;SDS011;58587;53.034;18.576;2023-05-15T13:42:14;23.00;;;16.30;;
70927;SDS011;58587;53.034;18.576;2023-05-15T13:44:39;19.50;;;15.25;;
70927;SDS011;58587;53.034;18.576;2023-05-15T13:47:06;44.00;;;27.10;;
70927;SDS011;58587;53.034;18.576;2023-05-15T13:49:31;42.35;;;27.92;;
70927;SDS011;58587;53.034;18.576;2023-05-15T13:51:56;31.37;;;20.43;;
70927;SDS011;58587;53.034;18.576;2023-05-15T13:54:22;38.37;;;23.90;;
70927;SDS011;58587;53.034;18.576;2023-05-15T13:56:47;39.77;;;24.90;;
70927;SDS011;58587;53.034;18.576;2023-05-15T13:59:12;23.80;;;16.13;;
70927;SDS011;58587;53.034;18.576;2023-05-15T14:01:38;17.33;;;12.03;;
70927;SDS011;58587;53.034;18.576;2023-05-15T14:04:03;36.70;;;23.07;;
70927;SDS011;58587;53.034;18.576;2023-05-15T14:06:29;29.47;;;19.43;;
70927;SDS011;58587;53.034;18.576;2023-05-15T14:08:55;17.45;;;12.60;;
70927;SDS011;58587;53.034;18.576;2023-05-15T14:11:20;12.03;;;10.07;;
70927;SDS011;58587;53.034;18.576;2023-05-15T14:13:46;16.63;;;12.33;;
70927;SDS011;58587;53.034;18.576;2023-05-15T14:16:12;29.92;;;18.48;;
70927;SDS011;58587;53.034;18.576;2023-05-15T14:18:37;26.23;;;17.83;;
70927;SDS011;58587;53.034;18.576;2023-05-15T14:21:02;18.60;;;12.90;;
70927;SDS011;58587;53.034;18.576;2023-05-15T14:23:28;40.80;;;23.77;;
70927;SDS011;58587;53.034;18.576;2023-05-15T14:25:53;46.20;;;27.73;;
70927;SDS011;58587;53.034;18.576;2023-05-15T14:28:18;41.90;;;27.47;;
70927;SDS011;58587;53.034;18.576;2023-05-15T14:30:44;45.30;;;30.10;;
70927;SDS011;58587;53.034;18.576;2023-05-15T14:33:09;19.53;;;15.13;;
70927;SDS011;58587;53.034;18.576;2023-05-15T14:35:34;17.00;;;14.32;;
70927;SDS011;58587;53.034;18.576;2023-05-15T14:38:00;17.10;;;15.13;;
70927;SDS011;58587;53.034;18.576;2023-05-15T14:40:26;34.50;;;22.55;;
70927;SDS011;58587;53.034;18.576;2023-05-15T14:42:52;33.33;;;21.70;;
70927;SDS011;58587;53.034;18.576;2023-05-15T14:45:17;45.30;;;26.20;;
70927;SDS011;58587;53.034;18.576;2023-05-15T14:47:42;28.20;;;17.97;;
70927;SDS011;58587;53.034;18.576;2023-05-15T14:50:08;35.60;;;22.83;;
70927;SDS011;58587;53.034;18.576;2023-05-15T14:52:33;82.95;;;46.03;;
70927;SDS011;58587;53.034;18.576;2023-05-15T14:55:00;58.00;;;35.17;;
70927;SDS011;58587;53.034;18.576;2023-05-15T14:57:25;52.92;;;31.08;;
70927;SDS011;58587;53.034;18.576;2023-05-15T14:59:51;42.17;;;26.50;;
70927;SDS011;58587;53.034;18.576;2023-05-15T15:02:16;47.83;;;31.20;;
70927;SDS011;58587;53.034;18.576;2023-05-15T15:04:42;65.20;;;35.97;;
70927;SDS011;58587;53.034;18.576;2023-05-15T15:07:09;84.95;;;41.80;;
70927;SDS011;58587;53.034;18.576;2023-05-15T15:09:35;24.97;;;17.90;;
70927;SDS011;58587;53.034;18.576;2023-05-15T15:12:00;38.83;;;23.77;;
70927;SDS011;58587;53.034;18.576;2023-05-15T15:14:25;62.87;;;31.27;;
70927;SDS011;58587;53.034;18.576;2023-05-15T15:16:51;28.00;;;23.20;;
70927;SDS011;58587;53.034;18.576;2023-05-15T15:19:16;18.93;;;14.77;;
70927;SDS011;58587;53.034;18.576;2023-05-15T15:21:41;12.27;;;9.97;;
70927;SDS011;58587;53.034;18.576;2023-05-15T15:24:07;12.90;;;10.40;;
70927;SDS011;58587;53.034;18.576;2023-05-15T15:26:32;33.72;;;27.70;;
70927;SDS011;58587;53.034;18.576;2023-05-15T15:28:58;15.27;;;10.37;;
70927;SDS011;58587;53.034;18.576;2023-05-15T15:31:25;21.98;;;14.77;;
70927;SDS011;58587;53.034;18.576;2023-05-15T15:33:51;34.13;;;22.73;;
70927;SDS011;58587;53.034;18.576;2023-05-15T15:36:17;56.85;;;32.10;;
70927;SDS011;58587;53.034;18.576;2023-05-15T15:38:42;38.57;;;24.20;;
70927;SDS011;58587;53.034;18.576;2023-05-15T15:41:08;34.20;;;24.03;;
70927;SDS011;58587;53.034;18.576;2023-05-15T15:43:33;22.60;;;19.13;;
70927;SDS011;58587;53.034;18.576;2023-05-15T15:45:58;25.53;;;20.43;;
70927;SDS011;58587;53.034;18.576;2023-05-15T15:48:24;24.37;;;16.90;;
70927;SDS011;58587;53.034;18.576;2023-05-15T15:50:49;29.80;;;20.95;;
70927;SDS011;58587;53.034;18.576;2023-05-15T15:53:16;28.30;;;19.83;;
70927;SDS011;58587;53.034;18.576;2023-05-15T15:55:41;40.30;;;24.63;;
70927;SDS011;58587;53.034;18.576;2023-05-15T15:58:06;36.15;;;21.42;;
70927;SDS011;58587;53.034;18.576;2023-05-15T16:00:31;30.83;;;20.27;;
70927;SDS011;58587;53.034;18.576;2023-05-15T16:02:57;43.03;;;26.97;;
70927;SDS011;58587;53.034;18.576;2023-05-15T16:05:22;42.00;;;27.77;;
70927;SDS011;58587;53.034;18.576;2023-05-15T16:07:48;51.73;;;27.07;;
70927;SDS011;58587;53.034;18.576;2023-05-15T16:10:13;28.40;;;18.37;;
70927;SDS011;58587;53.034;18.576;2023-05-15T16:12:38;20.57;;;15.87;;
70927;SDS011;58587;53.034;18.576;2023-05-15T16:15:04;14.20;;;11.13;;
70927;SDS011;58587;53.034;18.576;2023-05-15T16:17:31;18.90;;;15.10;;
70927;SDS011;58587;53.034;18.576;2023-05-15T16:19:56;18.70;;;15.23;;
70927;SDS011;58587;53.034;18.576;2023-05-15T16:22:22;17.97;;;13.47;;
70927;SDS011;58587;53.034;18.576;2023-05-15T16:24:47;18.40;;;13.60;;
70927;SDS011;58587;53.034;18.576;2023-05-15T16:27:12;22.70;;;17.63;;
70927;SDS011;58587;53.034;18.576;2023-05-15T16:29:38;26.83;;;19.07;;
70927;SDS011;58587;53.034;18.576;2023-05-15T16:32:03;35.57;;;25.90;;
70927;SDS011;58587;53.034;18.576;2023-05-15T16:34:28;45.93;;;31.73;;
70927;SDS011;58587;53.034;18.576;2023-05-15T16:36:54;52.53;;;39.40;;
70927;SDS011;58587;53.034;18.576;2023-05-15T16:39:19;48.77;;;37.10;;
70927;SDS011;58587;53.034;18.576;2023-05-15T16:41:45;36.95;;;29.48;;
70927;SDS011;58587;53.034;18.576;2023-05-15T16:44:10;34.37;;;26.87;;
70927;SDS011;58587;53.034;18.576;2023-05-15T16:46:36;21.90;;;18.53;;
70927;SDS011;58587;53.034;18.576;2023-05-15T16:49:02;39.58;;;31.33;;
70927;SDS011;58587;53.034;18.576;2023-05-15T16:51:28;26.75;;;22.45;;
70927;SDS011;58587;53.034;18.576;2023-05-15T16:53:53;23.87;;;20.60;;
70927;SDS011;58587;53.034;18.576;2023-05-15T16:56:20;27.05;;;22.50;;
70927;SDS011;58587;53.034;18.576;2023-05-15T16:58:46;28.53;;;23.73;;
70927;SDS011;58587;53.034;18.576;2023-05-15T17:01:11;30.97;;;23.50;;
70927;SDS011;58587;53.034;18.576;2023-05-15T17:03:36;43.57;;;29.63;;
70927;SDS011;58587;53.034;18.576;2023-05-15T17:06:02;47.87;;;33.27;;
70927;SDS011;58587;53.034;18.576;2023-05-15T17:08:27;35.47;;;29.70;;
70927;SDS011;58587;53.034;18.576;2023-05-15T17:10:53;23.80;;;19.03;;
70927;SDS011;58587;53.034;18.576;2023-05-15T17:13:18;21.37;;;17.17;;
70927;SDS011;58587;53.034;18.576;2023-05-15T17:15:43;23.17;;;17.00;;
70927;SDS011;58587;53.034;18.576;2023-05-15T17:18:11;22.15;;;17.10;;
70927;SDS011;58587;53.034;18.576;2023-05-15T17:20:36;26.67;;;20.13;;
70927;SDS011;58587;53.034;18.576;2023-05-15T17:23:01;18.77;;;14.67;;
70927;SDS011;58587;53.034;18.576;2023-05-15T17:25:27;15.90;;;12.10;;
70927;SDS011;58587;53.034;18.576;2023-05-15T17:27:52;16.73;;;12.83;;
70927;SDS011;58587;53.034;18.576;2023-05-15T17:30:17;14.63;;;11.63;;
70927;SDS011;58587;53.034;18.576;2023-05-15T17:32:42;13.77;;;11.03;;
70927;SDS011;58587;53.034;18.576;2023-05-15T17:35:08;15.17;;;11.60;;
70927;SDS011;58587;53.034;18.576;2023-05-15T17:37:34;14.30;;;11.35;;
70927;SDS011;58587;53.034;18.576;2023-05-15T17:39:59;15.50;;;10.50;;
70927;SDS011;58587;53.034;18.576;2023-05-15T17:42:25;12.47;;;10.60;;
70927;SDS011;58587;53.034;18.576;2023-05-15T17:44:52;14.73;;;11.50;;
70927;SDS011;58587;53.034;18.576;2023-05-15T17:47:18;16.63;;;12.93;;
70927;SDS011;58587;53.034;18.576;2023-05-15T17:49:43;17.57;;;12.63;;
70927;SDS011;58587;53.034;18.576;2023-05-15T17:52:09;18.00;;;14.40;;
70927;SDS011;58587;53.034;18.576;2023-05-15T17:54:34;17.20;;;12.73;;
70927;SDS011;58587;53.034;18.576;2023-05-15T17:56:59;19.73;;;14.43;;
70927;SDS011;58587;53.034;18.576;2023-05-15T17:59:25;15.70;;;11.87;;
70927;SDS011;58587;53.034;18.576;2023-05-15T18:01:50;16.23;;;12.50;;
70927;SDS011;58587;53.034;18.576;2023-05-15T18:04:15;18.23;;;13.17;;
70927;SDS011;58587;53.034;18.576;2023-05-15T18:06:41;17.10;;;13.70;;
70927;SDS011;58587;53.034;18.576;2023-05-15T18:09:06;17.30;;;14.83;;
70927;SDS011;58587;53.034;18.576;2023-05-15T18:11:31;20.80;;;16.03;;
70927;SDS011;58587;53.034;18.576;2023-05-15T18:13:57;17.85;;;13.40;;
70927;SDS011;58587;53.034;18.576;2023-05-15T18:16:22;18.87;;;15.30;;
70927;SDS011;58587;53.034;18.576;2023-05-15T18:18:48;20.10;;;15.57;;
70927;SDS011;58587;53.034;18.576;2023-05-15T18:21:15;23.77;;;16.83;;
70927;SDS011;58587;53.034;18.576;2023-05-15T18:23:41;24.13;;;16.13;;
70927;SDS011;58587;53.034;18.576;2023-05-15T18:26:06;28.23;;;21.87;;
70927;SDS011;58587;53.034;18.576;2023-05-15T18:28:31;22.83;;;16.60;;
70927;SDS011;58587;53.034;18.576;2023-05-15T18:30:57;20.43;;;15.00;;
70927;SDS011;58587;53.034;18.576;2023-05-15T18:33:23;20.87;;;16.07;;
70927;SDS011;58587;53.034;18.576;2023-05-15T18:35:48;20.60;;;15.43;;
70927;SDS011;58587;53.034;18.576;2023-05-15T18:38:13;20.70;;;15.93;;
70927;SDS011;58587;53.034;18.576;2023-05-15T18:40:38;21.07;;;16.07;;
70927;SDS011;58587;53.034;18.576;2023-05-15T18:43:04;17.23;;;13.97;;
70927;SDS011;58587;53.034;18.576;2023-05-15T18:45:30;21.20;;;14.88;;
70927;SDS011;58587;53.034;18.576;2023-05-15T18:47:55;24.70;;;19.30;;
70927;SDS011;58587;53.034;18.576;2023-05-15T18:50:21;18.70;;;14.63;;
70927;SDS011;58587;53.034;18.576;2023-05-15T18:52:48;22.58;;;16.80;;
70927;SDS011;58587;53.034;18.576;2023-05-15T18:55:14;19.20;;;14.37;;
70927;SDS011;58587;53.034;18.576;2023-05-15T18:57:39;22.73;;;17.50;;
70927;SDS011;58587;53.034;18.576;2023-05-15T19:00:05;27.67;;;20.80;;
70927;SDS011;58587;53.034;18.576;2023-05-15T19:02:31;66.30;;;43.00;;
70927;SDS011;58587;53.034;18.576;2023-05-15T19:04:57;60.28;;;41.05;;
70927;SDS011;58587;53.034;18.576;2023-05-15T19:07:23;54.50;;;33.87;;
70927;SDS011;58587;53.034;18.576;2023-05-15T19:09:48;53.67;;;34.45;;
70927;SDS011;58587;53.034;18.576;2023-05-15T19:12:14;35.53;;;24.57;;
70927;SDS011;58587;53.034;18.576;2023-05-15T19:14:39;34.57;;;23.83;;
70927;SDS011;58587;53.034;18.576;2023-05-15T19:17:04;33.77;;;23.47;;
70927;SDS011;58587;53.034;18.576;2023-05-15T19:19:30;28.50;;;19.10;;
70927;SDS011;58587;53.034;18.576;2023-05-15T19:21:55;36.88;;;25.60;;
70927;SDS011;58587;53.034;18.576;2023-05-15T19:24:21;31.60;;;21.87;;
70927;SDS011;58587;53.034;18.576;2023-05-15T19:26:46;29.73;;;20.73;;
70927;SDS011;58587;53.034;18.576;2023-05-15T19:29:12;23.57;;;17.07;;
70927;SDS011;58587;53.034;18.576;2023-05-15T19:31:37;33.20;;;22.15;;
70927;SDS011;58587;53.034;18.576;2023-05-15T19:34:03;28.53;;;17.93;;
70927;SDS011;58587;53.034;18.576;2023-05-15T19:36:28;27.13;;;17.83;;
70927;SDS011;58587;53.034;18.576;2023-05-15T19:38:55;29.63;;;18.25;;
70927;SDS011;58587;53.034;18.576;2023-05-15T19:41:20;23.10;;;16.10;;
70927;SDS011;58587;53.034;18.576;2023-05-15T19:43:46;24.77;;;15.68;;
70927;SDS011;58587;53.034;18.576;2023-05-15T19:46:14;26.67;;;16.48;;
70927;SDS011;58587;53.034;18.576;2023-05-15T19:48:40;22.65;;;16.73;;
70927;SDS011;58587;53.034;18.576;2023-05-15T19:51:06;27.17;;;17.73;;
70927;SDS011;58587;53.034;18.576;2023-05-15T19:53:32;26.73;;;17.40;;
70927;SDS011;58587;53.034;18.576;2023-05-15T19:55:57;26.33;;;16.42;;
70927;SDS011;58587;53.034;18.576;2023-05-15T19:58:22;23.80;;;15.97;;
70927;SDS011;58587;53.034;18.576;2023-05-15T20:00:47;21.33;;;15.53;;
70927;SDS011;58587;53.034;18.576;2023-05-15T20:03:13;21.13;;;14.93;;
70927;SDS011;58587;53.034;18.576;2023-05-15T20:05:39;27.33;;;16.88;;
70927;SDS011;58587;53.034;18.576;2023-05-15T20:08:05;22.30;;;15.57;;
70927;SDS011;58587;53.034;18.576;2023-05-15T20:10:30;31.13;;;19.67;;
70927;SDS011;58587;53.034;18.576;2023-05-15T20:12:56;28.13;;;18.67;;
70927;SDS011;58587;53.034;18.576;2023-05-15T20:15:21;21.70;;;15.03;;
70927;SDS011;58587;53.034;18.576;2023-05-15T20:17:46;24.00;;;16.07;;
70927;SDS011;58587;53.034;18.576;2023-05-15T20:20:12;20.00;;;13.77;;
70927;SDS011;58587;53.034;18.576;2023-05-15T20:22:37;23.53;;;14.87;;
70927;SDS011;58587;53.034;18.576;2023-05-15T20:25:04;20.67;;;13.70;;
70927;SDS011;58587;53.034;18.576;2023-05-15T20:27:30;18.10;;;13.13;;
70927;SDS011;58587;53.034;18.576;2023-05-15T20:29:55;17.35;;;12.38;;
70927;SDS011;58587;53.034;18.576;2023-05-15T20:32:21;16.77;;;12.00;;
70927;SDS011;58587;53.034;18.576;2023-05-15T20:34:46;19.10;;;13.13;;
70927;SDS011;58587;53.034;18.576;2023-05-15T20:37:12;18.42;;;13.00;;
70927;SDS011;58587;53.034;18.576;2023-05-15T20:39:38;18.00;;;12.00;;
70927;SDS011;58587;53.034;18.576;2023-05-15T20:42:03;17.63;;;11.93;;
70927;SDS011;58587;53.034;18.576;2023-05-15T20:44:29;14.32;;;10.63;;
70927;SDS011;58587;53.034;18.576;2023-05-15T20:46:54;16.37;;;10.63;;
70927;SDS011;58587;53.034;18.576;2023-05-15T20:49:20;15.57;;;10.85;;
70927;SDS011;58587;53.034;18.576;2023-05-15T20:51:45;16.93;;;10.43;;
70927;SDS011;58587;53.034;18.576;2023-05-15T20:54:12;15.27;;;10.13;;
70927;SDS011;58587;53.034;18.576;2023-05-15T20:56:41;15.52;;;10.40;;
70927;SDS011;58587;53.034;18.576;2023-05-15T20:59:06;17.57;;;10.60;;
70927;SDS011;58587;53.034;18.576;2023-05-15T21:01:31;15.27;;;10.23;;
70927;SDS011;58587;53.034;18.576;2023-05-15T21:03:57;14.98;;;10.55;;
70927;SDS011;58587;53.034;18.576;2023-05-15T21:06:22;19.33;;;11.80;;
70927;SDS011;58587;53.034;18.576;2023-05-15T21:08:48;15.20;;;11.47;;
70927;SDS011;58587;53.034;18.576;2023-05-15T21:11:13;16.70;;;11.97;;
70927;SDS011;58587;53.034;18.576;2023-05-15T21:13:38;16.48;;;11.93;;
70927;SDS011;58587;53.034;18.576;2023-05-15T21:16:04;17.03;;;12.20;;
70927;SDS011;58587;53.034;18.576;2023-05-15T21:18:29;17.27;;;12.47;;
70927;SDS011;58587;53.034;18.576;2023-05-15T21:20:55;15.60;;;12.17;;
70927;SDS011;58587;53.034;18.576;2023-05-15T21:23:20;16.23;;;11.90;;
70927;SDS011;58587;53.034;18.576;2023-05-15T21:25:45;15.83;;;12.50;;
70927;SDS011;58587;53.034;18.576;2023-05-15T21:28:11;18.88;;;13.15;;
70927;SDS011;58587;53.034;18.576;2023-05-15T21:30:36;17.07;;;13.27;;
70927;SDS011;58587;53.034;18.576;2023-05-15T21:33:02;19.73;;;13.33;;
70927;SDS011;58587;53.034;18.576;2023-05-15T21:35:27;19.93;;;12.97;;
70927;SDS011;58587;53.034;18.576;2023-05-15T21:37:54;16.75;;;13.23;;
70927;SDS011;58587;53.034;18.576;2023-05-15T21:40:20;17.00;;;13.07;;
70927;SDS011;58587;53.034;18.576;2023-05-15T21:42:45;19.93;;;14.63;;
70927;SDS011;58587;53.034;18.576;2023-05-15T21:45:10;17.47;;;13.10;;
70927;SDS011;58587;53.034;18.576;2023-05-15T21:47:36;17.83;;;13.60;;
70927;SDS011;58587;53.034;18.576;2023-05-15T21:50:01;18.50;;;14.17;;
70927;SDS011;58587;53.034;18.576;2023-05-15T21:52:26;17.90;;;13.70;;
70927;SDS011;58587;53.034;18.576;2023-05-15T21:54:52;18.53;;;14.27;;
70927;SDS011;58587;53.034;18.576;2023-05-15T21:57:17;20.43;;;14.37;;
70927;SDS011;58587;53.034;18.576;2023-05-15T21:59:42;19.40;;;13.93;;
70927;SDS011;58587;53.034;18.576;2023-05-15T22:02:07;17.20;;;13.67;;
70927;SDS011;58587;53.034;18.576;2023-05-15T22:04:33;17.23;;;12.77;;
70927;SDS011;58587;53.034;18.576;2023-05-15T22:06:58;18.40;;;13.90;;
70927;SDS011;58587;53.034;18.576;2023-05-15T22:09:24;17.07;;;13.03;;
70927;SDS011;58587;53.034;18.576;2023-05-15T22:11:50;16.67;;;13.38;;
70927;SDS011;58587;53.034;18.576;2023-05-15T22:14:15;16.27;;;13.10;;
70927;SDS011;58587;53.034;18.576;2023-05-15T22:16:41;16.37;;;13.20;;
70927;SDS011;58587;53.034;18.576;2023-05-15T22:19:06;17.60;;;13.50;;
70927;SDS011;58587;53.034;18.576;2023-05-15T22:21:31;16.97;;;13.30;;
70927;SDS011;58587;53.034;18.576;2023-05-15T22:23:57;16.92;;;13.48;;
70927;SDS011;58587;53.034;18.576;2023-05-15T22:26:22;17.93;;;13.50;;
70927;SDS011;58587;53.034;18.576;2023-05-15T22:28:52;21.87;;;13.87;;
70927;SDS011;58587;53.034;18.576;2023-05-15T22:31:19;20.65;;;14.07;;
70927;SDS011;58587;53.034;18.576;2023-05-15T22:33:45;17.77;;;14.00;;
70927;SDS011;58587;53.034;18.576;2023-05-15T22:36:10;16.20;;;13.25;;
70927;SDS011;58587;53.034;18.576;2023-05-15T22:38:36;18.63;;;14.33;;
70927;SDS011;58587;53.034;18.576;2023-05-15T22:41:01;17.50;;;12.47;;
70927;SDS011;58587;53.034;18.576;2023-05-15T22:43:26;17.43;;;13.13;;
70927;SDS011;58587;53.034;18.576;2023-05-15T22:45:52;18.40;;;13.67;;